Hobbema, Canada
Current Conditions -  °F | °C
As of 9:00 AM on Thursday 23 Oct 2014 (Local Time) from CYEG Reporting Station
Few Clouds Few Clouds  
Wind Chill: 34°   Ceiling: Unl
Heat Index: 34°   Visibility: 15mi
Dew Point: 30°   Wind: 2mph
Humidity: 87%   Direction: NA
Pressure: 29.41"   Gusts: NA
Location:  52.83°N, 113.45°W
Report Text: CYEG 231500Z VRB02KT 15SM FEW160 FEW240 01/M01 A2941 RMK AC1CI1 CI TR ACC ASOCTD N SLP978
Loading
Personal Weather Stations






























Interactive Weather Map
Tropical Storm Tracking
New forecast layout! Learn more

10-Day Weather Forecast

Advertisements
Track Severe Weather on mobile